Time;durP1;ratioP1;P1;durP2;ratioP2;P2;SDS_P1;SDS_P2;PMS_P1;PMS_P2;Temp;Humidity;BMP_temperature;BMP_pressure;BME280_temperature;BME280_humidity;BME280_pressure;Samples;Min_cycle;Max_cycle;Signal;HPM_P1;HPM_P2
2022/05/13 00:02:06;;;;;;;6.23;3.20;;;;;;;17.47;58.21;99327.34;5109887;28;20222;-88
2022/05/13 00:04:34;;;;;;;6.97;3.00;;;;;;;17.43;58.16;99337.97;5109691;28;20686;-85
2022/05/13 00:07:02;;;;;;;4.43;2.90;;;;;;;17.43;57.96;99332.81;5109271;28;20736;-88
2022/05/13 00:12:10;;;;;;;3.40;2.87;;;;;;;17.41;58.20;99329.56;5109525;28;20225;-84
2022/05/13 00:14:37;;;;;;;6.17;3.00;;;;;;;17.41;58.01;99323.56;5109434;28;20213;-84
2022/05/13 00:17:04;;;;;;;4.97;3.40;;;;;;;17.46;57.66;99325.72;5109306;28;20229;-88
2022/05/13 00:19:32;;;;;;;5.30;3.00;;;;;;;17.43;58.13;99317.31;5109152;28;20215;-84
2022/05/13 00:22:00;;;;;;;5.50;3.37;;;;;;;17.38;59.43;99323.88;5109420;28;20225;-87
2022/05/13 00:24:27;;;;;;;5.13;3.30;;;;;;;17.31;59.46;99323.66;5109536;28;20200;-84
2022/05/13 00:26:54;;;;;;;4.67;3.30;;;;;;;17.31;59.89;99321.09;5109154;28;20612;-88
2022/05/13 00:29:22;;;;;;;9.33;3.43;;;;;;;17.35;59.71;99319.81;5109229;28;20220;-85
2022/05/13 00:31:49;;;;;;;5.87;3.33;;;;;;;17.34;60.06;99318.19;5109119;28;20593;-87
2022/05/13 00:34:16;;;;;;;4.90;3.20;;;;;;;17.32;59.57;99314.94;5109142;28;20196;-87
2022/05/13 00:36:42;;;;;;;6.17;3.40;;;;;;;17.29;59.77;99320.41;5109128;28;20216;-84
2022/05/13 00:39:11;;;;;;;5.00;3.40;;;;;;;17.25;61.10;99318.25;5109252;28;20197;-85
2022/05/13 00:41:37;;;;;;;6.60;3.17;;;;;;;17.17;61.46;99324.19;5108991;28;20201;-87
2022/05/13 00:44:05;;;;;;;5.00;3.37;;;;;;;17.08;61.49;99322.47;5109064;28;20690;-84
2022/05/13 00:46:31;;;;;;;4.17;3.23;;;;;;;17.06;61.00;99321.81;5109410;28;20243;-87
2022/05/13 00:49:02;;;;;;;3.80;3.40;;;;;;;17.05;60.62;99317.63;5108973;28;20232;-85
2022/05/13 00:51:33;;;;;;;5.90;3.43;;;;;;;17.08;61.02;99312.16;5108989;28;20205;-87
2022/05/13 00:54:01;;;;;;;7.23;3.50;;;;;;;17.04;60.50;99314.19;5108813;28;20711;-84
2022/05/13 00:56:30;;;;;;;5.00;3.30;;;;;;;17.02;60.98;99317.91;5109018;28;20189;-84
2022/05/13 00:59:00;;;;;;;7.20;4.07;;;;;;;16.97;61.46;99315.75;5108963;28;20249;-86
2022/05/13 01:01:27;;;;;;;5.67;3.63;;;;;;;16.96;60.95;99325.28;5108829;28;20201;-85
2022/05/13 01:03:54;;;;;;;4.27;3.43;;;;;;;17.04;60.88;99315.97;5108778;28;20228;-85
2022/05/13 01:06:23;;;;;;;3.77;3.07;;;;;;;17.07;61.40;99321.66;5108447;28;20296;-86
2022/05/13 01:08:50;;;;;;;6.43;3.60;;;;;;;17.02;62.12;99317.91;5108738;28;20221;-84
2022/05/13 01:11:22;;;;;;;4.53;3.73;;;;;;;16.88;60.98;99322.59;5108410;28;20205;-85
2022/05/13 01:14:01;;;;;;;5.30;3.47;;;;;;;16.89;60.52;99319.03;5108776;28;20595;-85
2022/05/13 01:16:28;;;;;;;4.73;3.30;;;;;;;16.83;60.77;99322.22;5108717;28;20228;-85
2022/05/13 01:18:54;;;;;;;4.87;3.63;;;;;;;16.80;60.25;99319.91;5108666;28;20228;-85
2022/05/13 01:21:25;;;;;;;6.10;3.60;;;;;;;16.79;60.38;99320.88;5108495;28;20204;-85
2022/05/13 01:23:54;;;;;;;4.10;3.53;;;;;;;16.80;60.55;99319.91;5108681;28;20222;-85
2022/05/13 01:26:25;;;;;;;7.70;3.70;;;;;;;16.76;60.74;99313.44;5108896;28;20256;-85
2022/05/13 01:28:55;;;;;;;4.10;3.30;;;;;;;16.78;60.74;99314.09;5108570;28;20773;-85
2022/05/13 01:31:25;;;;;;;4.70;3.70;;;;;;;16.81;60.86;99316.38;5112093;28;20209;-85
2022/05/13 01:33:53;;;;;;;5.20;3.53;;;;;;;16.82;61.06;99318.03;5112497;28;20236;-85
2022/05/13 01:36:21;;;;;;;5.10;3.57;;;;;;;16.81;61.33;99318.97;5112254;28;20204;-85
2022/05/13 01:38:49;;;;;;;5.73;3.50;;;;;;;16.78;60.98;99313.28;5112098;27;20240;-85
2022/05/13 01:41:18;;;;;;;5.03;3.77;;;;;;;16.80;60.78;99314.75;5111901;28;20292;-86
2022/05/13 01:43:46;;;;;;;5.00;4.03;;;;;;;16.80;60.62;99307.00;5111989;28;20247;-84
2022/05/13 01:46:13;;;;;;;4.87;3.60;;;;;;;16.77;60.96;99307.31;5111752;28;20831;-84
2022/05/13 01:48:40;;;;;;;4.87;3.93;;;;;;;16.68;62.16;99313.31;5112083;28;20502;-85
2022/05/13 01:51:07;;;;;;;6.07;4.30;;;;;;;16.58;62.46;99309.94;5112185;28;20209;-85
2022/05/13 01:53:35;;;;;;;6.37;4.03;;;;;;;16.57;62.26;99311.72;5111961;28;20634;-85
2022/05/13 01:56:03;;;;;;;5.20;4.07;;;;;;;16.53;61.92;99313.78;5111698;28;20212;-85
2022/05/13 01:58:32;;;;;;;4.93;3.93;;;;;;;16.52;61.95;99322.50;5111547;28;20230;-85
2022/05/13 02:00:59;;;;;;;6.23;3.97;;;;;;;16.49;62.39;99311.63;5112308;28;20200;-85
2022/05/13 02:03:46;;;;;;;6.30;4.33;;;;;;;16.44;62.52;99313.84;5111647;28;20221;-85
2022/05/13 02:06:15;;;;;;;4.87;3.90;;;;;;;16.38;62.99;99315.22;5111509;28;20236;-85
2022/05/13 02:08:42;;;;;;;5.30;4.00;;;;;;;16.37;62.92;99313.56;5111589;28;20218;-85
2022/05/13 02:11:09;;;;;;;6.60;4.30;;;;;;;16.35;62.66;99315.50;5111511;28;20262;-86
2022/05/13 02:13:38;;;;;;;5.33;3.83;;;;;;;16.34;62.67;99308.69;5111675;28;20217;-85
2022/05/13 02:16:05;;;;;;;5.50;4.00;;;;;;;16.31;63.08;99306.41;5111653;28;20201;-85
2022/05/13 02:18:33;;;;;;;6.20;4.37;;;;;;;16.32;62.82;99308.06;5111142;28;20225;-85
2022/05/13 02:21:00;;;;;;;6.23;4.23;;;;;;;16.28;63.11;99304.91;5111562;28;20860;-85
2022/05/13 02:23:27;;;;;;;9.13;4.17;;;;;;;16.33;62.77;99307.09;5111598;28;20550;-84
2022/05/13 02:26:00;;;;;;;5.17;4.27;;;;;;;16.27;62.94;99308.47;5111399;28;20660;-85
2022/05/13 02:28:27;;;;;;;5.57;4.27;;;;;;;16.24;63.55;99303.59;5111322;28;20221;-84
2022/05/13 02:30:56;;;;;;;6.13;4.23;;;;;;;16.21;63.30;99298.72;5111296;28;20201;-85
2022/05/13 02:33:23;;;;;;;5.57;3.90;;;;;;;16.18;63.69;99300.78;5111235;28;20234;-84
2022/05/13 02:35:49;;;;;;;5.10;4.13;;;;;;;16.16;63.93;99300.09;5111408;28;20204;-84
2022/05/13 02:38:17;;;;;;;5.07;4.00;;;;;;;16.14;63.95;99304.56;5110879;28;20604;-86
2022/05/13 02:43:28;;;;;;;6.20;4.00;;;;;;;16.11;64.36;99302.28;5111298;28;20231;-87
2022/05/13 02:45:56;;;;;;;5.53;4.27;;;;;;;16.10;64.29;99305.81;5110751;28;20240;-86
2022/05/13 02:48:24;;;;;;;5.10;3.93;;;;;;;16.10;63.82;99311.78;5110570;28;20228;-87
2022/05/13 02:50:51;;;;;;;5.80;4.30;;;;;;;16.10;64.02;99310.97;5110796;28;20198;-86
2022/05/13 02:53:18;;;;;;;5.70;4.50;;;;;;;16.06;64.41;99313.84;5110813;28;20229;-86
2022/05/13 02:55:44;;;;;;;6.43;4.30;;;;;;;16.09;64.28;99310.16;5110796;28;20671;-86
2022/05/13 02:58:11;;;;;;;5.03;3.87;;;;;;;16.09;64.68;99325.66;5111036;28;20224;-84
2022/05/13 03:00:39;;;;;;;5.03;4.27;;;;;;;16.05;64.79;99325.09;5110653;28;20205;-84
2022/05/13 03:03:07;;;;;;;7.33;4.60;;;;;;;16.05;65.16;99325.09;5110702;28;20217;-87
2022/05/13 03:05:34;;;;;;;5.67;4.17;;;;;;;16.04;65.14;99327.81;5110621;28;20205;-84
2022/05/13 03:08:02;;;;;;;6.00;3.90;;;;;;;16.05;64.64;99329.44;5110733;28;20233;-84
2022/05/13 03:10:31;;;;;;;5.43;4.27;;;;;;;16.04;65.13;99333.78;5110305;28;20292;-86
2022/05/13 03:12:58;;;;;;;5.97;4.37;;;;;;;16.03;65.10;99331.38;5110213;28;20923;-84
2022/05/13 03:15:25;;;;;;;7.93;4.50;;;;;;;16.01;64.96;99334.06;5110298;28;20569;-87
2022/05/13 03:17:52;;;;;;;4.67;4.10;;;;;;;16.04;65.12;99338.94;5110455;27;20233;-87
2022/05/13 03:20:22;;;;;;;5.30;4.57;;;;;;;16.04;65.36;99333.78;5110007;28;20197;-84
2022/05/13 03:22:51;;;;;;;5.30;4.33;;;;;;;16.06;65.40;99331.09;5110035;28;20601;-87
2022/05/13 03:25:19;;;;;;;5.80;4.63;;;;;;;16.04;65.31;99338.94;5109925;28;20291;-87
2022/05/13 03:27:46;;;;;;;6.83;4.30;;;;;;;16.04;65.51;99338.94;5109855;28;20233;-83
2022/05/13 03:30:16;;;;;;;5.70;4.27;;;;;;;16.04;65.31;99338.94;5110031;28;20201;-83
2022/05/13 03:32:43;;;;;;;6.53;4.23;;;;;;;16.06;65.53;99342.22;5110243;28;20277;-86
2022/05/13 03:35:12;;;;;;;8.60;4.67;;;;;;;16.05;65.66;99348.31;5110003;28;20635;-87
2022/05/13 03:37:40;;;;;;;5.87;4.70;;;;;;;16.05;65.85;99345.72;5110393;28;20233;-87
2022/05/13 03:40:08;;;;;;;6.43;4.40;;;;;;;16.09;65.84;99346.28;5109909;28;20233;-84
2022/05/13 03:42:36;;;;;;;6.10;4.80;;;;;;;16.15;65.90;99356.03;5109747;28;20220;-84
2022/05/13 03:45:04;;;;;;;5.47;4.30;;;;;;;16.19;66.06;99351.41;5110046;28;20200;-87
2022/05/13 03:47:31;;;;;;;7.00;4.83;;;;;;;16.21;66.23;99350.31;5109548;28;20237;-83
2022/05/13 03:49:57;;;;;;;4.87;4.37;;;;;;;16.22;66.21;99354.50;5109941;28;20201;-84
2022/05/13 03:52:24;;;;;;;6.93;4.70;;;;;;;16.24;66.49;99357.78;5109263;28;20233;-87
2022/05/13 03:54:53;;;;;;;8.20;5.20;;;;;;;16.28;67.02;99356.53;5109692;28;20219;-84
2022/05/13 03:57:19;;;;;;;6.40;4.30;;;;;;;16.33;66.59;99360.47;5109745;28;20217;-83
2022/05/13 03:59:46;;;;;;;5.67;4.40;;;;;;;16.37;67.02;99364.38;5109494;28;20189;-84
2022/05/13 04:02:13;;;;;;;7.03;4.67;;;;;;;16.41;66.83;99370.91;5109581;28;20224;-83
2022/05/13 04:10:08;;;;;;;7.93;5.00;;;;;;;16.59;67.36;99378.72;5109460;28;20200;-84
2022/05/13 04:18:04;;;;;;;8.40;4.90;;;;;;;16.82;66.97;99374.81;5109429;28;20638;-84
2022/05/13 04:20:32;;;;;;;6.40;4.80;;;;;;;16.90;66.92;99381.84;5109268;28;20987;-88
2022/05/13 04:22:59;;;;;;;7.47;4.63;;;;;;;17.04;66.53;99373.59;5109273;28;20320;-88
2022/05/13 04:25:27;;;;;;;8.03;4.80;;;;;;;17.23;66.77;99367.50;5109517;28;20200;-88
2022/05/13 04:27:54;;;;;;;5.63;4.33;;;;;;;17.35;65.35;99368.91;5108862;28;20240;-83
2022/05/13 04:30:21;;;;;;;6.13;4.63;;;;;;;17.51;65.49;99362.25;5109249;28;20220;-83
2022/05/13 04:32:48;;;;;;;8.27;4.90;;;;;;;17.68;65.34;99371.78;5109008;28;20228;-88
2022/05/13 04:35:16;;;;;;;6.70;4.77;;;;;;;17.84;64.28;99369.38;5109406;28;20205;-84
2022/05/13 04:37:43;;;;;;;6.57;5.17;;;;;;;18.05;63.21;99369.03;5109478;28;20225;-84
2022/05/13 04:40:11;;;;;;;6.53;4.80;;;;;;;18.22;62.59;99369.94;5109220;28;20208;-88
2022/05/13 04:42:50;;;;;;;6.93;4.57;;;;;;;18.39;61.79;99368.25;5109304;28;20226;-88
2022/05/13 04:45:23;;;;;;;7.37;4.97;;;;;;;18.64;61.79;99374.34;5109252;28;20204;-84
2022/05/13 04:50:39;;;;;;;6.63;4.83;;;;;;;19.18;61.33;99367.09;5109222;28;20412;-87
2022/05/13 04:53:08;;;;;;;6.47;4.90;;;;;;;19.42;60.87;99361.13;5108851;28;20234;-87
2022/05/13 04:55:36;;;;;;;6.20;4.90;;;;;;;19.72;59.45;99364.09;5108885;28;20201;-84
2022/05/13 04:58:04;;;;;;;6.63;4.90;;;;;;;19.97;58.49;99366.66;5109385;28;20763;-84
2022/05/13 05:00:31;;;;;;;6.83;5.10;;;;;;;20.16;57.39;99368.09;5108802;28;20215;-87
2022/05/13 05:02:58;;;;;;;5.57;4.43;;;;;;;20.36;56.43;99371.94;5109072;28;20222;-84
2022/05/13 05:05:25;;;;;;;6.60;4.80;;;;;;;20.59;54.78;99374.66;5110836;28;20206;-84
2022/05/13 05:07:52;;;;;;;7.33;4.40;;;;;;;20.84;54.92;99374.56;5112622;28;20244;-86
2022/05/13 05:10:21;;;;;;;5.60;4.40;;;;;;;21.11;54.70;99381.06;5112474;28;20668;-82
2022/05/13 05:12:49;;;;;;;8.90;4.63;;;;;;;21.38;53.97;99382.38;5112994;28;20297;-82
2022/05/13 05:15:18;;;;;;;6.27;4.53;;;;;;;21.74;57.49;99382.59;5113003;28;20200;-84
2022/05/13 05:17:45;;;;;;;8.10;4.60;;;;;;;22.01;53.06;99380.41;5112734;28;20225;-81
2022/05/13 05:20:12;;;;;;;5.07;4.13;;;;;;;22.30;52.58;99383.06;5112436;28;20678;-82
2022/05/13 05:22:39;;;;;;;11.30;5.07;;;;;;;22.52;51.05;99385.78;5112499;28;20653;-82
2022/05/13 05:25:06;;;;;;;9.00;5.13;;;;;;;22.69;51.04;99386.38;5112579;28;20195;-83
2022/05/13 05:27:35;;;;;;;6.97;4.90;;;;;;;22.79;49.75;99387.72;5112515;27;20249;-82
2022/05/13 05:30:04;;;;;;;6.47;4.30;;;;;;;22.95;48.86;99389.34;5112248;28;20709;-84
2022/05/13 05:32:32;;;;;;;5.68;4.60;;;;;;;23.14;50.26;99384.53;5112643;28;20232;-82
2022/05/13 05:34:59;;;;;;;6.07;4.60;;;;;;;23.26;50.08;99389.06;5112246;28;20198;-82
2022/05/13 05:37:27;;;;;;;4.55;4.15;;;;;;;23.51;48.73;99391.31;5112579;28;20243;-85
2022/05/13 05:39:53;;;;;;;6.65;4.75;;;;;;;23.68;48.73;99386.66;5111871;28;20240;-82
2022/05/13 05:42:20;;;;;;;5.78;4.75;;;;;;;23.63;47.94;99389.81;5112412;28;20221;-84
2022/05/13 05:44:47;;;;;;;5.47;4.53;;;;;;;23.78;48.53;99386.34;5112234;28;20209;-83
2022/05/13 05:47:14;;;;;;;5.70;4.43;;;;;;;24.13;47.78;99385.38;5111929;28;20233;-82
2022/05/13 05:49:42;;;;;;;7.13;4.70;;;;;;;24.24;48.34;99388.47;5112132;28;20603;-82
2022/05/13 05:52:10;;;;;;;5.45;4.93;;;;;;;24.43;47.58;99385.19;5111955;28;20221;-84
2022/05/13 05:57:22;;;;;;;5.25;4.75;;;;;;;24.52;46.62;99388.44;5112057;28;20262;-85
2022/05/13 05:59:49;;;;;;;6.05;4.72;;;;;;;24.89;46.64;99379.34;5112014;28;20642;-83
2022/05/13 06:02:17;;;;;;;5.82;4.70;;;;;;;25.15;46.71;99383.88;5112022;28;20309;-85
2022/05/13 06:04:45;;;;;;;8.23;4.82;;;;;;;25.43;46.47;99382.94;5112012;27;20644;-83
2022/05/13 06:07:14;;;;;;;24.05;5.72;;;;;;;25.65;45.62;99389.56;5111919;28;20474;-81
2022/05/13 06:09:43;;;;;;;6.72;4.97;;;;;;;25.85;44.60;99389.59;5111702;28;20201;-85
2022/05/13 06:12:12;;;;;;;6.68;4.50;;;;;;;26.17;46.57;99393.19;5111805;28;20358;-83
2022/05/13 06:14:39;;;;;;;9.32;4.68;;;;;;;26.46;44.06;99392.94;5111647;28;20198;-82
2022/05/13 06:17:07;;;;;;;10.45;4.65;;;;;;;26.80;43.93;99403.13;5111155;28;20255;-83
2022/05/13 06:19:34;;;;;;;7.63;4.88;;;;;;;26.96;43.05;99396.56;5111606;28;20205;-82
2022/05/13 06:22:03;;;;;;;6.82;4.93;;;;;;;27.24;43.21;99395.44;5111411;28;20721;-85
2022/05/13 06:24:30;;;;;;;5.55;4.60;;;;;;;27.48;42.62;99399.13;5111483;28;20274;-83
2022/05/13 06:26:57;;;;;;;5.13;4.63;;;;;;;27.65;41.44;99405.44;5111486;27;20555;-85
2022/05/13 06:29:25;;;;;;;5.57;4.53;;;;;;;27.72;40.81;99408.84;5111261;28;20706;-85
2022/05/13 06:31:53;;;;;;;10.02;5.18;;;;;;;27.67;41.57;99413.94;5110958;28;20198;-86
2022/05/13 06:34:22;;;;;;;7.47;4.80;;;;;;;27.87;40.95;99405.13;5111213;28;20321;-86
2022/05/13 06:36:51;;;;;;;8.10;4.80;;;;;;;28.07;40.71;99413.63;5110843;28;20236;-83
2022/05/13 06:39:19;;;;;;;8.02;4.63;;;;;;;28.49;40.93;99410.41;5111071;28;20236;-83
2022/05/13 06:41:47;;;;;;;9.30;4.68;;;;;;;28.71;40.44;99408.09;5110973;28;20209;-86
2022/05/13 06:44:15;;;;;;;9.02;4.78;;;;;;;29.04;38.58;99408.50;5110981;28;20186;-83
2022/05/13 06:46:43;;;;;;;5.90;4.43;;;;;;;29.19;36.84;99409.94;5110779;28;20255;-86
2022/05/13 06:49:12;;;;;;;6.18;4.47;;;;;;;29.41;37.15;99407.56;5110769;28;20237;-83
2022/05/13 06:51:40;;;;;;;5.93;4.32;;;;;;;29.59;36.24;99414.63;5110999;28;20205;-86
2022/05/13 06:54:09;;;;;;;8.48;4.40;;;;;;;29.84;38.56;99409.97;5111236;28;20201;-84
2022/05/13 06:56:39;;;;;;;6.07;4.88;;;;;;;30.01;38.35;99410.88;5110796;28;20633;-86
2022/05/13 06:59:07;;;;;;;8.35;4.28;;;;;;;30.21;37.16;99417.66;5110519;28;20209;-86
2022/05/13 07:01:34;;;;;;;7.20;4.57;;;;;;;30.45;38.85;99413.94;5110566;28;20573;-86
2022/05/13 07:04:01;;;;;;;8.85;4.57;;;;;;;30.63;37.66;99406.91;5110577;27;20316;-86
2022/05/13 07:06:27;;;;;;;8.48;4.40;;;;;;;30.55;37.72;99399.38;5110759;28;20286;-83
2022/05/13 07:08:54;;;;;;;11.10;4.68;;;;;;;30.56;39.51;99400.97;5110285;28;20705;-85
2022/05/13 07:11:21;;;;;;;5.63;4.70;;;;;;;30.80;37.30;99407.00;5110447;28;20250;-84
2022/05/13 07:13:50;;;;;;;9.38;4.63;;;;;;;30.74;37.60;99406.06;5110343;28;20260;-86
2022/05/13 07:16:17;;;;;;;10.98;4.40;;;;;;;30.86;37.85;99412.16;5109996;28;20194;-85
2022/05/13 07:18:46;;;;;;;6.57;4.40;;;;;;;31.07;36.60;99399.31;5110088;28;20217;-85
2022/05/13 07:21:13;;;;;;;6.25;4.40;;;;;;;31.20;37.11;99408.78;5110385;28;20201;-86
2022/05/13 07:23:40;;;;;;;5.15;4.57;;;;;;;31.46;35.56;99412.69;5110149;28;20217;-83
2022/05/13 07:26:07;;;;;;;6.63;4.10;;;;;;;31.44;34.50;99410.25;5110326;28;20793;-83
2022/05/13 07:28:35;;;;;;;5.22;4.05;;;;;;;31.35;33.42;99401.13;5109455;28;20760;-83
2022/05/13 07:31:03;;;;;;;5.55;4.20;;;;;;;31.32;34.44;99407.66;5109802;28;20550;-83
2022/05/13 07:33:30;;;;;;;4.88;4.22;;;;;;;31.56;35.31;99413.66;5109493;28;20264;-83
2022/05/13 07:35:57;;;;;;;5.03;4.07;;;;;;;31.73;35.67;99412.84;5109777;28;20660;-83
2022/05/13 07:38:25;;;;;;;6.10;4.25;;;;;;;31.86;34.63;99404.56;5109519;28;20224;-85
2022/05/13 07:43:36;;;;;;;7.10;4.07;;;;;;;31.59;33.51;99407.06;5110164;28;20224;-84
2022/05/13 07:46:06;;;;;;;8.73;4.28;;;;;;;30.99;34.23;99394.41;5109802;28;20193;-84
2022/05/13 07:48:33;;;;;;;4.80;4.03;;;;;;;31.52;34.61;99396.66;5109800;28;20236;-86
2022/05/13 07:51:00;;;;;;;4.90;4.35;;;;;;;31.96;35.78;99407.38;5109530;28;20228;-84
2022/05/13 07:53:27;;;;;;;4.43;3.92;;;;;;;31.95;35.42;99410.28;5109347;28;20214;-84
2022/05/13 07:55:54;;;;;;;5.50;4.20;;;;;;;31.54;34.18;99399.88;5109572;28;20193;-84
2022/05/13 07:58:21;;;;;;;5.75;4.00;;;;;;;31.80;33.32;99395.78;5109920;28;20727;-86
2022/05/13 08:00:48;;;;;;;4.50;4.10;;;;;;;31.49;34.71;99397.13;5109762;28;20890;-86
2022/05/13 08:03:18;;;;;;;4.68;4.07;;;;;;;31.48;33.51;99398.19;5109141;28;20666;-86
2022/05/13 08:05:47;;;;;;;5.50;4.13;;;;;;;32.05;33.36;99394.53;5109894;28;20210;-87
2022/05/13 08:08:16;;;;;;;5.95;4.18;;;;;;;32.43;32.12;99396.34;5109145;28;20237;-84
2022/05/13 08:10:46;;;;;;;5.03;3.80;;;;;;;32.45;32.06;99389.00;5109628;28;20675;-87
2022/05/13 08:13:13;;;;;;;5.68;3.88;;;;;;;32.77;31.65;99390.13;5109401;28;20224;-87
2022/05/13 08:15:40;;;;;;;5.82;4.00;;;;;;;32.57;31.28;99401.31;5109511;28;20292;-86
2022/05/13 08:18:08;;;;;;;5.40;3.55;;;;;;;32.59;31.72;99407.97;5109706;28;20601;-84
2022/05/13 08:20:36;;;;;;;4.63;4.03;;;;;;;32.85;33.34;99397.66;5109559;28;20204;-85
2022/05/13 08:23:04;;;;;;;7.90;3.90;;;;;;;32.75;29.76;99392.22;5109136;28;20750;-88
2022/05/13 08:25:31;;;;;;;4.00;3.60;;;;;;;32.96;31.25;99387.94;5109314;28;20208;-87
2022/05/13 08:27:58;;;;;;;6.82;3.80;;;;;;;33.46;32.29;99389.47;5108760;28;20228;-86
2022/05/13 08:30:25;;;;;;;4.20;3.60;;;;;;;33.84;32.05;99388.44;5108914;28;20785;-88
2022/05/13 08:32:52;;;;;;;5.95;3.75;;;;;;;34.09;31.43;99384.34;5109310;28;20232;-88
2022/05/13 08:35:20;;;;;;;4.10;3.70;;;;;;;33.53;29.68;99382.13;5109311;28;20217;-87
2022/05/13 08:37:51;;;;;;;3.30;3.00;;;;;;;33.29;28.68;99386.94;5109324;28;20501;-85
2022/05/13 08:40:27;;;;;;;7.65;3.35;;;;;;;32.85;28.79;99381.75;5112800;28;20203;-88
2022/05/13 08:42:54;;;;;;;5.82;3.30;;;;;;;32.64;28.09;99376.25;5113662;28;20636;-86
2022/05/13 08:45:22;;;;;;;5.15;3.22;;;;;;;32.76;27.32;99383.25;5113263;28;20699;-86
2022/05/13 08:47:52;;;;;;;4.95;3.30;;;;;;;33.45;27.65;99386.00;5113193;28;20384;-85
2022/05/13 08:50:24;;;;;;;3.00;2.70;;;;;;;33.75;27.27;99389.97;5113479;28;20193;-85
2022/05/13 08:53:08;;;;;;;4.07;3.10;;;;;;;33.84;25.48;99383.13;5113466;28;20597;-87
2022/05/13 08:55:39;;;;;;;3.60;2.67;;;;;;;34.02;25.05;99372.06;5112991;28;20211;-87
2022/05/13 08:58:09;;;;;;;3.38;2.58;;;;;;;34.25;22.59;99381.50;5113238;28;20217;-88
2022/05/13 09:00:40;;;;;;;3.38;2.78;;;;;;;33.66;24.51;99378.22;5112888;28;20236;-85
2022/05/13 09:03:16;;;;;;;3.60;2.90;;;;;;;34.01;27.39;99372.34;5115989;28;20221;-87
2022/05/13 09:05:48;;;;;;;3.72;3.30;;;;;;;33.96;25.53;99370.44;5124712;28;20204;-86
2022/05/13 09:08:16;;;;;;;3.65;3.00;;;;;;;34.34;27.32;99376.47;5124133;28;20243;-86
2022/05/13 09:11:03;;;;;;;3.40;2.97;;;;;;;34.36;25.70;99371.72;5112826;28;20576;-86
2022/05/13 09:13:36;;;;;;;5.20;2.85;;;;;;;34.09;24.66;99379.03;5112857;28;20214;-86
2022/05/13 09:16:08;;;;;;;5.43;2.90;;;;;;;34.42;24.74;99367.22;5112712;28;20190;-84
2022/05/13 09:18:37;;;;;;;5.18;2.97;;;;;;;34.67;24.41;99366.50;5112431;28;20228;-86
2022/05/13 09:21:10;;;;;;;4.15;3.00;;;;;;;34.67;26.71;99369.16;5112692;28;20198;-84
2022/05/13 09:23:39;;;;;;;3.60;3.10;;;;;;;34.47;28.36;99368.03;5112841;28;20563;-84
2022/05/13 09:26:09;;;;;;;3.55;2.80;;;;;;;34.99;24.68;99362.84;5112383;28;20198;-84
2022/05/13 09:28:38;;;;;;;5.00;3.17;;;;;;;34.94;26.23;99358.34;5112258;28;20237;-85
2022/05/13 09:31:18;;;;;;;5.63;3.40;;;;;;;35.07;26.11;99357.81;5112545;28;20221;-85
2022/05/13 09:33:47;;;;;;;5.78;2.92;;;;;;;35.47;29.15;99355.41;5112484;28;20791;-85
2022/05/13 09:36:32;;;;;;;5.50;3.13;;;;;;;35.49;28.48;99354.09;5112460;28;20204;-85
2022/05/13 09:39:16;;;;;;;4.22;3.22;;;;;;;35.69;25.14;99358.59;5112075;28;20228;-85
2022/05/13 09:41:44;;;;;;;3.70;3.15;;;;;;;35.55;26.51;99357.56;5112246;28;20209;-86
2022/05/13 09:44:13;;;;;;;5.95;3.17;;;;;;;35.48;25.62;99343.72;5111991;28;20194;-85
2022/05/13 09:46:41;;;;;;;4.82;3.28;;;;;;;34.99;25.58;99344.25;5111994;28;20648;-85
2022/05/13 09:49:14;;;;;;;3.83;2.97;;;;;;;35.08;25.73;99337.34;5111821;28;20797;-85
2022/05/13 09:51:54;;;;;;;4.25;3.20;;;;;;;35.31;27.95;99339.47;5111285;28;20205;-87
2022/05/13 09:54:26;;;;;;;3.47;2.95;;;;;;;35.42;24.35;99326.16;5111793;27;20698;-86
2022/05/13 09:57:04;;;;;;;3.65;3.20;;;;;;;35.67;27.54;99339.44;5112143;28;20202;-88
2022/05/13 09:59:37;;;;;;;3.55;3.00;;;;;;;35.49;24.95;99327.50;5112050;28;20232;-86
2022/05/13 10:02:26;;;;;;;3.67;3.00;;;;;;;35.55;25.82;99320.34;5111366;28;20286;-86
2022/05/13 10:04:55;;;;;;;4.25;3.13;;;;;;;35.78;28.60;99325.06;5107388;28;20233;-88
2022/05/13 10:07:24;;;;;;;4.28;3.00;;;;;;;35.32;24.77;99317.16;5111383;28;20221;-87
2022/05/13 10:15:30;;;;;;;3.28;2.95;;;;;;;35.18;27.45;99308.13;5111406;28;20204;-86
2022/05/13 10:18:18;;;;;;;3.33;3.03;;;;;;;34.09;28.46;99304.72;5111721;28;20224;-88
2022/05/13 10:20:47;;;;;;;4.55;3.03;;;;;;;34.49;26.14;99294.22;5111496;28;20201;-89
2022/05/13 10:23:18;;;;;;;5.20;3.38;;;;;;;34.22;28.81;99293.63;5111031;28;20274;-86
2022/05/13 10:25:55;;;;;;;3.75;3.03;;;;;;;34.66;26.81;99298.53;5110898;28;20202;-86
2022/05/13 10:28:29;;;;;;;4.00;3.20;;;;;;;34.82;30.18;99292.16;5111093;28;20237;-85
2022/05/13 10:31:03;;;;;;;4.20;3.15;;;;;;;35.00;27.13;99292.72;5111290;28;20185;-84
2022/05/13 10:33:36;;;;;;;3.25;2.95;;;;;;;34.29;28.03;99288.06;5111402;28;20232;-87
2022/05/13 10:36:08;;;;;;;6.53;3.20;;;;;;;33.52;28.08;99285.09;5111199;28;20198;-87
2022/05/13 10:38:40;;;;;;;4.03;3.05;;;;;;;33.92;27.61;99284.50;5111540;28;20233;-85
2022/05/13 10:41:23;;;;;;;5.25;3.15;;;;;;;33.92;27.38;99283.66;5111069;28;20194;-85
2022/05/13 10:43:56;;;;;;;3.45;3.15;;;;;;;34.37;27.48;99272.44;5110660;28;20226;-87
2022/05/13 10:46:26;;;;;;;4.97;3.20;;;;;;;34.53;28.04;99272.44;5111058;28;20189;-85
2022/05/13 10:48:55;;;;;;;4.07;3.40;;;;;;;34.16;27.30;99270.78;5110887;28;20637;-84
2022/05/13 10:51:32;;;;;;;3.88;3.28;;;;;;;34.30;27.60;99274.56;5111147;28;20206;-87
2022/05/13 10:54:20;;;;;;;5.75;3.40;;;;;;;34.03;28.70;99270.25;5110871;28;20671;-87
2022/05/13 10:56:54;;;;;;;5.22;3.25;;;;;;;34.13;26.05;99268.66;5110672;28;20201;-87
2022/05/13 10:59:35;;;;;;;4.88;3.15;;;;;;;33.97;28.14;99260.59;5110629;28;20198;-86
2022/05/13 11:02:20;;;;;;;3.38;3.08;;;;;;;33.84;27.21;99261.09;5109858;28;20736;-84
2022/05/13 11:04:54;;;;;;;5.47;3.45;;;;;;;34.14;27.64;99254.31;5110568;28;20204;-84
2022/05/13 11:07:29;;;;;;;5.80;3.20;;;;;;;34.37;27.30;99253.06;5110487;28;20217;-84
2022/05/13 11:10:03;;;;;;;4.15;3.10;;;;;;;34.23;27.87;99250.09;5110513;28;20252;-85
2022/05/13 11:12:41;;;;;;;4.10;3.30;;;;;;;33.89;28.50;99250.53;5110668;28;20217;-84
2022/05/13 11:15:24;;;;;;;4.53;3.05;;;;;;;33.94;27.42;99242.56;5110775;28;20201;-86
2022/05/13 11:18:00;;;;;;;3.47;3.17;;;;;;;34.05;28.59;99235.47;5110507;28;20706;-86
2022/05/13 11:20:36;;;;;;;5.32;3.28;;;;;;;33.71;32.24;99240.34;5110334;28;20204;-84
2022/05/13 11:23:15;;;;;;;6.20;3.33;;;;;;;33.30;27.33;99229.53;5110463;28;20236;-86
2022/05/13 11:25:57;;;;;;;9.88;3.35;;;;;;;33.70;29.19;99228.16;5110412;27;20723;-85
2022/05/13 11:29:02;;;;;;;8.50;3.50;;;;;;;33.63;30.97;99227.59;5110085;28;20266;-84
2022/05/13 11:31:47;;;;;;;3.70;3.15;;;;;;;33.42;29.77;99221.38;5099859;28;20228;-85
2022/05/13 11:34:23;;;;;;;5.32;3.30;;;;;;;33.20;29.75;99217.03;5110249;28;20299;-85
2022/05/13 11:36:57;;;;;;;6.00;3.50;;;;;;;33.38;29.58;99218.44;5109913;28;20243;-85
2022/05/13 11:39:42;;;;;;;5.28;3.47;;;;;;;33.50;30.16;99213.72;5109830;28;20225;-86
2022/05/13 11:42:34;;;;;;;7.57;3.50;;;;;;;32.96;33.15;99219.22;5109977;28;20256;-84
2022/05/13 11:45:26;;;;;;;4.68;3.40;;;;;;;33.06;29.59;99208.72;5110099;28;20314;-86
2022/05/13 11:47:57;;;;;;;4.15;3.40;;;;;;;32.59;29.63;99198.81;5109762;28;20226;-86
2022/05/13 11:50:25;;;;;;;3.72;3.10;;;;;;;32.75;30.11;99197.06;5109690;28;20228;-85
2022/05/13 11:52:54;;;;;;;6.60;3.40;;;;;;;32.73;31.07;99201.06;5109654;28;20657;-88
2022/05/13 11:55:45;;;;;;;6.38;3.80;;;;;;;32.85;29.95;99201.66;5109925;28;20659;-85
2022/05/13 11:58:49;;;;;;;4.82;3.20;;;;;;;32.61;29.63;99191.44;5109470;28;20225;-88
2022/05/13 12:01:57;;;;;;;6.45;3.83;;;;;;;32.61;30.11;99187.97;5110054;28;20205;-86
2022/05/13 12:04:35;;;;;;;3.85;3.22;;;;;;;32.77;30.26;99173.00;5109411;28;20210;-87
2022/05/13 12:07:25;;;;;;;8.23;3.40;;;;;;;32.55;33.25;99171.25;5109600;28;20225;-85
2022/05/13 12:09:55;;;;;;;6.57;3.70;;;;;;;32.29;31.45;99175.50;5109526;28;20264;-88
2022/05/13 12:12:35;;;;;;;4.28;3.58;;;;;;;32.19;27.69;99168.25;5109587;28;20226;-85
2022/05/13 12:15:12;;;;;;;4.15;3.45;;;;;;;32.20;30.67;99169.06;5109393;28;20209;-85
2022/05/13 12:17:48;;;;;;;5.65;3.70;;;;;;;32.44;30.33;99164.25;5109623;28;20227;-87
2022/05/13 12:20:24;;;;;;;5.88;3.90;;;;;;;32.38;29.61;99159.97;5109259;28;20208;-87